createdAt,value
2018-11-03T00:00:08.277Z,6.90
2018-11-03T00:02:37.390Z,8.40
2018-11-03T00:05:07.016Z,9.20
2018-11-03T00:07:37.047Z,7.03
2018-11-03T00:10:07.743Z,7.53
2018-11-03T00:12:37.328Z,7.77
2018-11-03T00:15:07.043Z,8.10
2018-11-03T00:17:35.990Z,7.40
2018-11-03T00:20:06.300Z,7.33
2018-11-03T00:22:35.596Z,6.77
2018-11-03T00:25:05.872Z,7.40
2018-11-03T00:27:34.842Z,6.70
2018-11-03T00:30:04.758Z,7.40
2018-11-03T00:32:33.732Z,7.63
2018-11-03T00:35:02.744Z,7.33
2018-11-03T00:37:31.808Z,8.40
2018-11-03T00:40:01.507Z,8.90
2018-11-03T00:42:30.498Z,12.07
2018-11-03T00:44:59.949Z,9.93
2018-11-03T00:47:28.935Z,9.23
2018-11-03T00:49:57.905Z,8.93
2018-11-03T00:52:26.915Z,9.20
2018-11-03T00:54:55.946Z,8.73
2018-11-03T00:57:25.262Z,9.33
2018-11-03T00:59:54.381Z,9.03
2018-11-03T01:02:23.349Z,8.60
2018-11-03T01:04:52.446Z,9.00
2018-11-03T01:07:22.030Z,7.83
2018-11-03T01:09:51.110Z,7.97
2018-11-03T01:12:20.088Z,7.83
2018-11-03T01:14:49.569Z,8.13
2018-11-03T01:17:18.657Z,8.10
2018-11-03T01:19:47.696Z,8.43
2018-11-03T01:22:16.924Z,8.17
2018-11-03T01:24:45.904Z,9.00
2018-11-03T01:27:15.097Z,7.80
2018-11-03T01:29:44.673Z,7.60
2018-11-03T01:32:13.677Z,7.17
2018-11-03T01:34:42.650Z,8.10
2018-11-03T01:37:11.690Z,6.80
2018-11-03T01:39:40.707Z,8.30
2018-11-03T01:42:10.329Z,9.50
2018-11-03T01:44:39.285Z,10.73
2018-11-03T01:47:08.823Z,6.87
2018-11-03T01:49:37.943Z,8.27
2018-11-03T01:52:07.080Z,6.90
2018-11-03T01:54:36.073Z,7.47
2018-11-03T01:57:05.411Z,7.10
2018-11-03T01:59:35.107Z,6.80
2018-11-03T02:02:04.075Z,6.53
2018-11-03T02:04:33.021Z,6.77
2018-11-03T02:07:02.076Z,6.93
2018-11-03T02:09:31.061Z,8.40
2018-11-03T02:12:00.720Z,9.77
2018-11-03T02:14:29.681Z,10.70
2018-11-03T02:16:58.736Z,9.67
2018-11-03T02:19:29.344Z,9.17
2018-11-03T02:22:01.294Z,8.47
2018-11-03T02:24:30.289Z,9.50
2018-11-03T02:27:00.303Z,8.63
2018-11-03T02:29:29.291Z,8.30
2018-11-03T02:31:58.308Z,10.00
2018-11-03T02:34:27.340Z,10.63
2018-11-03T02:36:56.449Z,10.23
2018-11-03T02:39:25.436Z,9.43
2018-11-03T02:41:54.464Z,8.60
2018-11-03T02:44:24.628Z,7.20
2018-11-03T02:46:53.586Z,8.00
2018-11-03T02:49:24.249Z,9.00
2018-11-03T02:51:53.557Z,7.37
2018-11-03T02:54:22.528Z,7.80
2018-11-03T02:56:51.622Z,7.57
2018-11-03T02:59:20.786Z,7.30
2018-11-03T03:01:56.213Z,7.37
2018-11-03T03:04:25.297Z,7.70
2018-11-03T03:06:55.367Z,8.20
2018-11-03T03:09:24.758Z,7.80
2018-11-03T03:11:53.916Z,8.80
2018-11-03T03:14:22.909Z,10.03
2018-11-03T03:16:51.798Z,8.83
2018-11-03T03:19:20.825Z,8.40
2018-11-03T03:21:49.870Z,8.40
2018-11-03T03:24:19.587Z,8.33
2018-11-03T03:26:48.527Z,9.53
2018-11-03T03:29:17.576Z,7.87
2018-11-03T03:31:46.410Z,7.80
2018-11-03T03:34:15.456Z,8.13
2018-11-03T03:36:44.599Z,9.80
2018-11-03T03:39:13.591Z,8.63
2018-11-03T03:41:44.471Z,8.17
2018-11-03T03:44:13.420Z,6.60
2018-11-03T03:46:42.562Z,7.00
2018-11-03T03:49:11.627Z,7.53
2018-11-03T03:51:40.771Z,10.23
2018-11-03T03:54:10.073Z,11.80
2018-11-03T03:56:39.190Z,14.40
2018-11-03T03:59:09.359Z,14.67
2018-11-03T04:01:38.514Z,17.70
2018-11-03T04:04:07.597Z,12.57
2018-11-03T04:06:36.692Z,11.47
2018-11-03T04:09:07.464Z,11.67
2018-11-03T04:11:36.555Z,10.70
2018-11-03T04:14:05.622Z,10.47
2018-11-03T04:16:34.661Z,11.30
2018-11-03T04:19:03.650Z,12.10
2018-11-03T04:21:33.194Z,15.10
2018-11-03T04:24:02.380Z,16.23
2018-11-03T04:26:32.119Z,14.67
2018-11-03T04:29:01.249Z,13.70
2018-11-03T04:31:30.396Z,14.37
2018-11-03T04:33:59.424Z,12.83
2018-11-03T04:36:28.520Z,13.27
2018-11-03T04:38:59.754Z,14.40
2018-11-03T04:41:28.706Z,13.60
2018-11-03T04:43:57.940Z,12.93
2018-11-03T04:46:27.424Z,16.47
2018-11-03T04:49:02.500Z,11.70
2018-11-03T04:51:33.136Z,10.63
2018-11-03T04:54:02.136Z,10.90
2018-11-03T04:56:31.287Z,16.20
2018-11-03T04:59:00.407Z,17.87
2018-11-03T05:01:29.586Z,21.90
2018-11-03T05:03:58.767Z,23.87
2018-11-03T05:06:27.822Z,22.77
2018-11-03T05:08:57.313Z,21.70
2018-11-03T05:11:26.391Z,22.87
2018-11-03T05:13:55.779Z,19.77
2018-11-03T05:16:24.858Z,21.97
2018-11-03T05:18:54.030Z,16.63
2018-11-03T05:21:23.399Z,15.03
2018-11-03T05:23:53.548Z,14.17
2018-11-03T05:26:22.624Z,16.23
2018-11-03T05:28:51.834Z,16.13
2018-11-03T05:31:21.268Z,16.77
2018-11-03T05:33:50.288Z,17.13
2018-11-03T05:36:19.609Z,17.97
2018-11-03T05:38:48.963Z,23.97
2018-11-03T05:41:18.294Z,18.00
2018-11-03T05:43:47.580Z,17.77
2018-11-03T05:46:16.874Z,17.73
2018-11-03T05:48:46.347Z,17.67
2018-11-03T05:51:21.981Z,19.23
2018-11-03T05:53:51.941Z,16.30
2018-11-03T05:56:21.142Z,17.03
2018-11-03T05:58:50.342Z,12.57
2018-11-03T06:01:19.458Z,15.43
2018-11-03T06:03:48.634Z,12.47
2018-11-03T06:06:17.814Z,11.50
2018-11-03T06:08:47.032Z,11.87
2018-11-03T06:11:17.446Z,9.97
2018-11-03T06:13:46.486Z,13.53
2018-11-03T06:16:15.777Z,14.27
2018-11-03T06:18:44.983Z,19.77
2018-11-03T06:21:14.279Z,16.90
2018-11-03T06:23:43.486Z,21.53
2018-11-03T06:26:12.517Z,18.63
2018-11-03T06:28:42.549Z,20.20
2018-11-03T06:31:11.812Z,17.40
2018-11-03T06:33:41.693Z,19.60
2018-11-03T06:36:11.146Z,19.97
2018-11-03T06:38:40.970Z,17.93
2018-11-03T06:41:09.996Z,27.47
2018-11-03T06:43:39.076Z,33.40
2018-11-03T06:46:08.226Z,32.73
2018-11-03T06:48:37.218Z,21.90
2018-11-03T06:51:07.116Z,18.60
2018-11-03T06:53:36.222Z,22.23
2018-11-03T06:56:05.397Z,26.43
2018-11-03T06:58:34.519Z,19.73
2018-11-03T07:01:03.838Z,18.50
2018-11-03T07:03:33.021Z,13.57
2018-11-03T07:06:02.148Z,12.00
2018-11-03T07:08:32.849Z,11.60
2018-11-03T07:11:02.143Z,9.77
2018-11-03T07:13:31.237Z,10.47
2018-11-03T07:16:00.320Z,8.30
2018-11-03T07:18:29.647Z,8.60
2018-11-03T07:20:58.780Z,8.87
2018-11-03T07:23:27.839Z,8.60
2018-11-03T07:25:58.047Z,8.37
2018-11-03T07:28:27.144Z,7.27
2018-11-03T07:30:57.610Z,9.20
2018-11-03T07:33:26.822Z,6.80
2018-11-03T07:35:56.179Z,6.70
2018-11-03T07:38:25.883Z,6.60
2018-11-03T07:40:55.169Z,6.53
2018-11-03T07:43:24.213Z,6.17
2018-11-03T07:45:54.410Z,5.60
2018-11-03T07:48:24.407Z,6.07
2018-11-03T07:50:53.549Z,5.90
2018-11-03T07:53:22.673Z,6.90
2018-11-03T07:55:51.767Z,5.80
2018-11-03T07:58:20.878Z,6.80
2018-11-03T08:00:49.894Z,5.97
2018-11-03T08:03:18.955Z,7.03
2018-11-03T08:05:48.856Z,6.80
2018-11-03T08:08:17.959Z,6.63
2018-11-03T08:10:47.717Z,5.27
2018-11-03T08:13:16.939Z,6.60
2018-11-03T08:15:46.019Z,6.93
2018-11-03T08:18:14.921Z,7.63
2018-11-03T08:20:43.987Z,7.10
2018-11-03T08:23:13.782Z,8.17
2018-11-03T08:25:42.846Z,7.60
2018-11-03T08:28:12.019Z,7.77
2018-11-03T08:30:41.259Z,7.97
2018-11-03T08:33:10.251Z,8.60
2018-11-03T08:35:39.404Z,7.93
2018-11-03T08:38:08.515Z,7.47
2018-11-03T08:40:38.939Z,8.37
2018-11-03T08:43:08.155Z,7.80
2018-11-03T08:45:37.171Z,7.93
2018-11-03T08:48:07.081Z,7.77
2018-11-03T08:50:36.176Z,7.60
2018-11-03T08:53:05.478Z,7.97
2018-11-03T08:55:34.498Z,7.57
2018-11-03T08:58:03.522Z,6.77
2018-11-03T09:00:32.679Z,7.47
2018-11-03T09:03:02.598Z,8.10
2018-11-03T09:05:31.596Z,7.63
2018-11-03T09:08:00.670Z,8.27
2018-11-03T09:10:29.720Z,7.53
2018-11-03T09:12:58.742Z,7.40
2018-11-03T09:15:27.773Z,7.03
2018-11-03T09:17:56.853Z,7.77
2018-11-03T09:20:26.568Z,6.60
2018-11-03T09:22:55.580Z,7.93
2018-11-03T09:25:24.622Z,9.80
2018-11-03T09:27:53.681Z,6.63
2018-11-03T09:30:22.733Z,8.43
2018-11-03T09:32:52.498Z,7.93
2018-11-03T09:35:21.612Z,6.63
2018-11-03T09:37:51.421Z,7.30
2018-11-03T09:40:20.467Z,7.53
2018-11-03T09:42:50.223Z,6.90
2018-11-03T09:45:19.204Z,8.13
2018-11-03T09:47:48.322Z,7.43
2018-11-03T09:50:17.411Z,8.68
2018-11-03T09:55:31.749Z,9.43
2018-11-03T09:58:01.917Z,9.10
2018-11-03T10:00:30.941Z,8.97
2018-11-03T10:03:00.035Z,7.67
2018-11-03T10:05:29.081Z,7.57
2018-11-03T10:07:59.041Z,8.53
2018-11-03T10:10:28.259Z,10.13
2018-11-03T10:12:57.289Z,7.70
2018-11-03T10:15:26.435Z,9.73
2018-11-03T10:17:55.524Z,9.40
2018-11-03T10:20:25.236Z,7.87
2018-11-03T10:22:54.378Z,8.23
2018-11-03T10:25:23.351Z,8.17
2018-11-03T10:27:52.329Z,7.47
2018-11-03T10:30:21.374Z,9.07
2018-11-03T10:32:52.050Z,9.60
2018-11-03T10:35:21.031Z,9.60
2018-11-03T10:37:50.110Z,8.30
2018-11-03T10:40:19.199Z,7.70
2018-11-03T10:42:48.160Z,9.03
2018-11-03T10:45:17.531Z,8.87
2018-11-03T10:47:46.581Z,9.80
2018-11-03T10:50:17.570Z,10.53
2018-11-03T10:52:47.041Z,8.33
2018-11-03T10:55:17.240Z,10.30
2018-11-03T10:57:46.282Z,8.40
2018-11-03T11:00:22.326Z,11.37
2018-11-03T11:02:56.833Z,9.37
2018-11-03T11:05:32.045Z,12.13
2018-11-03T11:08:06.584Z,11.17
2018-11-03T11:10:41.783Z,9.67
2018-11-03T11:13:18.038Z,9.47
2018-11-03T11:15:48.947Z,8.73
2018-11-03T11:18:17.982Z,8.70
2018-11-03T11:20:47.819Z,8.27
2018-11-03T11:23:17.057Z,8.60
2018-11-03T11:25:46.169Z,9.23
2018-11-03T11:28:18.075Z,10.40
2018-11-03T11:30:47.391Z,8.73
2018-11-03T11:33:17.701Z,9.60
2018-11-03T11:35:46.934Z,10.63
2018-11-03T11:38:16.562Z,9.83
2018-11-03T11:40:45.562Z,8.77
2018-11-03T11:43:15.551Z,9.53
2018-11-03T11:45:44.642Z,10.13
2018-11-03T11:48:13.756Z,8.17
2018-11-03T11:50:42.865Z,9.33
2018-11-03T11:53:11.944Z,9.67
2018-11-03T11:55:41.639Z,9.07
2018-11-03T11:58:10.759Z,10.17
2018-11-03T12:00:40.393Z,9.27
2018-11-03T12:03:09.369Z,9.63
2018-11-03T12:05:38.757Z,10.00
2018-11-03T12:08:07.902Z,10.00
2018-11-03T12:10:37.345Z,9.40
2018-11-03T12:13:06.521Z,10.63
2018-11-03T12:15:35.703Z,10.07
2018-11-03T12:18:04.872Z,10.73
2018-11-03T12:20:33.923Z,10.47
2018-11-03T12:23:03.662Z,10.40
2018-11-03T12:25:32.825Z,9.33
2018-11-03T12:28:01.998Z,12.77
2018-11-03T12:30:31.128Z,10.43
2018-11-03T12:33:00.232Z,10.50
2018-11-03T12:35:29.451Z,9.20
2018-11-03T12:37:58.708Z,10.30
2018-11-03T12:40:28.569Z,11.47
2018-11-03T12:42:57.694Z,11.43
2018-11-03T12:45:27.269Z,10.63
2018-11-03T12:47:56.459Z,9.63
2018-11-03T12:50:25.681Z,11.53
2018-11-03T12:52:54.800Z,11.03
2018-11-03T12:55:23.965Z,12.17
2018-11-03T12:57:54.367Z,10.43
2018-11-03T13:00:23.409Z,10.83
2018-11-03T13:02:52.680Z,11.83
2018-11-03T13:05:21.903Z,10.63
2018-11-03T13:07:52.111Z,11.00
2018-11-03T13:10:21.208Z,11.13
2018-11-03T13:12:50.299Z,10.53
2018-11-03T13:15:19.492Z,10.90
2018-11-03T13:17:48.685Z,16.50
2018-11-03T13:20:17.861Z,12.53
2018-11-03T13:22:47.085Z,11.73
2018-11-03T13:25:16.893Z,14.80
2018-11-03T13:27:46.122Z,15.37
2018-11-03T13:30:15.585Z,12.13
2018-11-03T13:32:44.683Z,11.03
2018-11-03T13:35:14.433Z,13.33
2018-11-03T13:37:43.642Z,12.97
2018-11-03T13:40:13.984Z,13.23
2018-11-03T13:42:43.772Z,11.43
2018-11-03T13:45:12.901Z,12.03
2018-11-03T13:47:42.118Z,12.57
2018-11-03T13:50:11.441Z,12.53
2018-11-03T13:52:42.513Z,11.90
2018-11-03T13:55:11.679Z,13.67
2018-11-03T13:57:43.169Z,13.00
2018-11-03T14:00:13.490Z,13.53
2018-11-03T14:02:44.584Z,12.30
2018-11-03T14:05:14.343Z,13.80
2018-11-03T14:07:43.558Z,12.40
2018-11-03T14:10:14.665Z,14.13
2018-11-03T14:12:44.384Z,12.23
2018-11-03T14:15:14.899Z,12.33
2018-11-03T14:17:44.558Z,12.77
2018-11-03T14:20:14.812Z,13.53
2018-11-03T14:22:44.809Z,12.13
2018-11-03T14:25:15.426Z,14.57
2018-11-03T14:27:46.112Z,12.37
2018-11-03T14:30:15.403Z,13.67
2018-11-03T14:32:50.838Z,15.53
2018-11-03T14:35:19.975Z,17.23
2018-11-03T14:37:49.666Z,20.50
2018-11-03T14:40:18.791Z,14.73
2018-11-03T14:42:47.960Z,18.03
2018-11-03T14:45:17.542Z,17.93
2018-11-03T14:47:46.626Z,14.63
2018-11-03T14:50:15.766Z,17.70
2018-11-03T14:52:44.828Z,14.80
2018-11-03T14:55:14.295Z,15.07
2018-11-03T14:57:43.490Z,13.50
2018-11-03T15:00:14.629Z,14.37
2018-11-03T15:02:43.781Z,15.03
2018-11-03T15:05:13.334Z,13.80
2018-11-03T15:07:42.425Z,16.03
2018-11-03T15:10:12.990Z,14.70
2018-11-03T15:12:43.332Z,13.23
2018-11-03T15:15:15.367Z,13.53
2018-11-03T15:17:44.800Z,17.47
2018-11-03T15:20:14.695Z,13.47
2018-11-03T15:22:44.210Z,13.70
2018-11-03T15:25:13.431Z,16.97
2018-11-03T15:27:42.859Z,15.20
2018-11-03T15:30:13.020Z,16.20
2018-11-03T15:32:42.226Z,15.10
2018-11-03T15:35:12.693Z,14.73
2018-11-03T15:37:41.718Z,17.67
2018-11-03T15:40:12.948Z,13.63
2018-11-03T15:42:42.495Z,14.50
2018-11-03T15:45:14.952Z,15.07
2018-11-03T15:47:44.977Z,14.43
2018-11-03T15:50:14.916Z,14.77
2018-11-03T15:52:44.656Z,13.83
2018-11-03T15:55:14.007Z,15.80
2018-11-03T15:57:43.184Z,14.33
2018-11-03T16:00:15.289Z,15.30
2018-11-03T16:02:44.962Z,14.00
2018-11-03T16:05:14.126Z,15.63
2018-11-03T16:07:43.839Z,14.17
2018-11-03T16:10:12.944Z,17.07
2018-11-03T16:12:43.486Z,18.20
2018-11-03T16:15:13.219Z,20.17
2018-11-03T16:17:42.974Z,18.23
2018-11-03T16:20:12.948Z,16.90
2018-11-03T16:22:42.848Z,17.13
2018-11-03T16:25:12.005Z,16.07
2018-11-03T16:27:41.186Z,17.77
2018-11-03T16:30:14.187Z,20.30
2018-11-03T16:32:45.510Z,17.77
2018-11-03T16:35:14.457Z,17.47
2018-11-03T16:37:44.384Z,17.63
2018-11-03T16:40:14.970Z,16.40
2018-11-03T16:42:45.914Z,20.53
2018-11-03T16:45:16.487Z,23.60
2018-11-03T16:47:46.056Z,21.90
2018-11-03T16:50:15.965Z,19.97
2018-11-03T16:52:45.208Z,18.67
2018-11-03T16:55:15.240Z,18.93
2018-11-03T16:57:44.190Z,18.37
2018-11-03T17:00:14.707Z,18.87
2018-11-03T17:02:43.822Z,19.10
2018-11-03T17:05:13.998Z,20.23
2018-11-03T17:07:44.250Z,42.30
2018-11-03T17:10:15.269Z,18.20
2018-11-03T17:12:46.604Z,21.10
2018-11-03T17:15:16.293Z,21.93
2018-11-03T17:17:45.813Z,21.57
2018-11-03T17:20:14.986Z,20.20
2018-11-03T17:22:44.093Z,19.53
2018-11-03T17:25:13.601Z,21.07
2018-11-03T17:27:42.721Z,18.90
2018-11-03T17:30:14.369Z,20.73
2018-11-03T17:32:44.046Z,21.00
2018-11-03T17:35:13.438Z,18.00
2018-11-03T17:37:43.505Z,20.77
2018-11-03T17:40:13.274Z,20.40
2018-11-03T17:42:42.285Z,18.50
2018-11-03T17:45:11.929Z,19.67
2018-11-03T17:47:41.035Z,19.43
2018-11-03T17:50:12.151Z,18.70
2018-11-03T17:52:41.363Z,19.23
2018-11-03T17:55:11.318Z,21.43
2018-11-03T17:57:40.382Z,19.37
2018-11-03T18:00:12.775Z,44.03
2018-11-03T18:02:42.153Z,28.50
2018-11-03T18:05:11.275Z,21.50
2018-11-03T18:07:40.298Z,20.13
2018-11-03T18:10:11.216Z,20.73
2018-11-03T18:12:40.567Z,21.50
2018-11-03T18:15:10.793Z,19.27
2018-11-03T18:17:39.950Z,19.53
2018-11-03T18:20:10.127Z,18.67
2018-11-03T18:22:39.465Z,19.67
2018-11-03T18:25:08.643Z,18.57
2018-11-03T18:27:38.192Z,18.83
2018-11-03T18:30:08.924Z,17.63
2018-11-03T18:32:38.804Z,19.80
2018-11-03T18:35:07.940Z,18.77
2018-11-03T18:37:37.539Z,18.97
2018-11-03T18:40:07.495Z,18.43
2018-11-03T18:42:36.642Z,18.20
2018-11-03T18:45:06.056Z,21.07
2018-11-03T18:47:35.010Z,19.40
2018-11-03T18:50:04.596Z,20.60
2018-11-03T18:52:33.697Z,19.23
2018-11-03T18:55:03.587Z,20.63
2018-11-03T18:57:32.740Z,20.03
2018-11-03T19:00:02.048Z,19.20
2018-11-03T19:02:31.125Z,19.83
2018-11-03T19:05:00.133Z,18.37
2018-11-03T19:07:31.317Z,20.20
2018-11-03T19:10:00.438Z,22.07
2018-11-03T19:12:29.503Z,20.40
2018-11-03T19:14:58.734Z,19.60
2018-11-03T19:17:27.738Z,18.37
2018-11-03T19:19:56.741Z,18.30
2018-11-03T19:22:25.778Z,19.43
2018-11-03T19:24:55.758Z,19.60
2018-11-03T19:27:24.831Z,18.47
2018-11-03T19:29:53.983Z,20.27
2018-11-03T19:32:23.192Z,20.17
2018-11-03T19:34:52.306Z,18.23
2018-11-03T19:37:21.821Z,19.63
2018-11-03T19:39:50.916Z,20.63
2018-11-03T19:42:20.549Z,17.87
2018-11-03T19:44:49.610Z,19.17
2018-11-03T19:47:18.631Z,19.43
2018-11-03T19:49:47.880Z,21.40
2018-11-03T19:52:17.000Z,18.73
2018-11-03T19:54:46.313Z,18.83
2018-11-03T19:57:15.593Z,18.03
2018-11-03T19:59:44.639Z,18.93
2018-11-03T20:02:13.841Z,19.47
2018-11-03T20:04:43.024Z,18.03
2018-11-03T20:07:12.409Z,18.23
2018-11-03T20:09:43.587Z,18.90
2018-11-03T20:12:12.609Z,18.73
2018-11-03T20:14:41.760Z,18.73
2018-11-03T20:17:11.083Z,18.53
2018-11-03T20:19:40.165Z,19.73
2018-11-03T20:22:09.350Z,17.10
2018-11-03T20:24:38.462Z,18.07
2018-11-03T20:27:08.318Z,18.37
2018-11-03T20:29:37.436Z,16.57
2018-11-03T20:32:06.469Z,18.10
2018-11-03T20:34:35.511Z,19.70
2018-11-03T20:37:04.529Z,18.27
2018-11-03T20:39:33.640Z,18.80
2018-11-03T20:42:02.632Z,17.80
2018-11-03T20:44:32.417Z,19.17
2018-11-03T20:47:01.429Z,18.57
2018-11-03T20:49:30.471Z,19.53
2018-11-03T20:51:59.715Z,19.47
2018-11-03T20:54:28.814Z,19.47
2018-11-03T20:56:57.828Z,18.33
2018-11-03T20:59:26.819Z,19.40
2018-11-03T21:01:57.358Z,18.53
2018-11-03T21:04:26.376Z,18.37
2018-11-03T21:06:55.552Z,18.77
2018-11-03T21:09:24.540Z,18.00
2018-11-03T21:11:53.585Z,17.90
2018-11-03T21:14:22.777Z,20.50
2018-11-03T21:16:51.789Z,21.80
2018-11-03T21:19:21.820Z,19.57
2018-11-03T21:21:50.821Z,20.53
2018-11-03T21:24:19.948Z,18.50
2018-11-03T21:26:48.896Z,19.47
2018-11-03T21:29:17.904Z,18.70
2018-11-03T21:31:49.248Z,18.13
2018-11-03T21:34:18.290Z,17.13
2018-11-03T21:36:47.423Z,17.57
2018-11-03T21:39:16.513Z,17.27
2018-11-03T21:41:45.622Z,21.27
2018-11-03T21:44:14.937Z,18.43
2018-11-03T21:46:44.092Z,17.20
2018-11-03T21:49:14.600Z,18.67
2018-11-03T21:51:43.948Z,17.87
2018-11-03T21:54:13.559Z,20.50
2018-11-03T21:56:42.661Z,17.73
2018-11-03T21:59:11.955Z,18.77
2018-11-03T22:01:41.233Z,18.37
2018-11-03T22:04:10.253Z,22.93
2018-11-03T22:06:39.510Z,18.30
2018-11-03T22:09:11.171Z,18.13
2018-11-03T22:11:40.266Z,20.43
2018-11-03T22:14:09.300Z,19.57
2018-11-03T22:16:38.798Z,19.87
2018-11-03T22:19:07.861Z,20.87
2018-11-03T22:21:36.990Z,20.13
2018-11-03T22:24:06.110Z,22.00
2018-11-03T22:26:35.142Z,20.13
2018-11-03T22:29:04.555Z,20.53
2018-11-03T22:31:33.669Z,19.27
2018-11-03T22:34:03.057Z,18.13
2018-11-03T22:36:32.157Z,18.37
2018-11-03T22:39:01.834Z,19.67
2018-11-03T22:41:30.886Z,19.50
2018-11-03T22:43:59.887Z,19.63
2018-11-03T22:46:28.899Z,20.23
2018-11-03T22:48:58.267Z,20.43
2018-11-03T22:51:27.408Z,19.67
2018-11-03T22:53:56.394Z,18.97
2018-11-03T22:56:26.608Z,19.70
2018-11-03T22:58:55.664Z,20.20
2018-11-03T23:01:24.789Z,20.77
2018-11-03T23:03:53.970Z,18.73
2018-11-03T23:06:23.105Z,19.73
2018-11-03T23:08:52.176Z,19.47
2018-11-03T23:11:21.421Z,20.07
2018-11-03T23:13:51.419Z,20.50
2018-11-03T23:16:20.594Z,19.23
2018-11-03T23:18:49.659Z,24.30
2018-11-03T23:21:18.687Z,19.23
2018-11-03T23:23:47.808Z,21.93
2018-11-03T23:26:16.935Z,21.80
2018-11-03T23:28:45.927Z,20.70
2018-11-03T23:31:15.364Z,23.10
2018-11-03T23:33:44.630Z,22.27
2018-11-03T23:36:13.672Z,21.43
2018-11-03T23:38:42.741Z,21.60
2018-11-03T23:41:11.861Z,21.03
2018-11-03T23:43:40.897Z,23.20
2018-11-03T23:46:09.936Z,24.10
2018-11-03T23:48:38.949Z,23.67
2018-11-03T23:51:08.327Z,22.23
2018-11-03T23:53:38.567Z,21.80
2018-11-03T23:56:07.518Z,21.00
2018-11-03T23:58:36.935Z,24.50
